Time;durP1;ratioP1;P1;durP2;ratioP2;P2;SDS_P1;SDS_P2;PMS_P1;PMS_P2;Temp;Humidity;BMP_temperature;BMP_pressure;BME280_temperature;BME280_humidity;BME280_pressure;Samples;Min_cycle;Max_cycle;Signal;HPM_P1;HPM_P2
2022/11/05 04:30:19;;;;;;;2.05;0.57;;;13.90;68.20;;;;;;5849898;23;20028;-78
2022/11/05 04:32:58;;;;;;;7.97;0.80;;;13.80;68.20;;;;;;4863075;29;20053;-78
2022/11/05 04:35:24;;;;;;;4.43;0.68;;;13.80;68.50;;;;;;4863281;29;20095;-78
2022/11/05 04:37:50;;;;;;;3.40;0.75;;;13.80;68.60;;;;;;4863027;29;20521;-79
2022/11/05 04:40:15;;;;;;;4.82;0.70;;;13.90;68.70;;;;;;4862387;29;20053;-82
2022/11/05 04:42:41;;;;;;;4.22;0.52;;;13.90;68.80;;;;;;4846719;29;20056;-78
2022/11/05 04:45:07;;;;;;;4.85;0.60;;;13.90;68.80;;;;;;4847331;29;20370;-78
2022/11/05 04:47:33;;;;;;;3.90;0.30;;;13.90;68.90;;;;;;4847147;29;20136;-79
2022/11/05 04:49:58;;;;;;;6.30;0.70;;;13.90;68.90;;;;;;4863025;29;20045;-79
2022/11/05 04:52:24;;;;;;;2.78;0.50;;;14.00;69.00;;;;;;4847336;29;20052;-81
2022/11/05 04:54:50;;;;;;;3.75;0.63;;;14.00;69.00;;;;;;4863563;29;20132;-79
2022/11/05 04:57:15;;;;;;;1.80;0.25;;;14.00;69.00;;;;;;4847088;29;20144;-79
2022/11/05 04:59:41;;;;;;;5.18;0.50;;;14.00;69.00;;;;;;4847533;29;20095;-80
2022/11/05 05:02:07;;;;;;;1.73;0.30;;;14.00;69.20;;;;;;4862936;29;20447;-80
2022/11/05 05:04:32;;;;;;;2.97;0.35;;;13.90;69.30;;;;;;4847090;29;20507;-79
2022/11/05 05:06:58;;;;;;;3.53;0.38;;;14.00;69.60;;;;;;4863305;29;20602;-79
2022/11/05 05:09:24;;;;;;;1.83;0.30;;;13.90;69.70;;;;;;4846728;29;20086;-81
2022/11/05 05:11:49;;;;;;;1.40;0.20;;;13.90;69.80;;;;;;4846883;29;20117;-79
2022/11/05 05:14:15;;;;;;;1.52;0.30;;;13.90;70.00;;;;;;4847050;29;20482;-80
2022/11/05 05:16:41;;;;;;;0.88;0.25;;;13.90;70.10;;;;;;4846104;29;20041;-81
2022/11/05 05:19:07;;;;;;;2.47;0.20;;;13.90;70.20;;;;;;4862539;29;20355;-81
2022/11/05 05:21:38;;;;;;;0.82;0.20;;;13.90;70.30;;;;;;4846144;29;20137;-80
2022/11/05 05:24:07;;;;;;;2.85;0.40;;;13.90;70.40;;;;;;4846112;29;20120;-83
2022/11/05 05:26:35;;;;;;;2.33;0.30;;;13.90;70.60;;;;;;4840822;29;20486;-79
2022/11/05 05:29:00;;;;;;;3.00;0.50;;;13.90;70.60;;;;;;4845864;29;20053;-81
2022/11/05 05:31:26;;;;;;;1.90;0.57;;;13.90;70.60;;;;;;4868890;29;20053;-82
2022/11/05 05:33:53;;;;;;;1.75;0.30;;;13.80;70.60;;;;;;4860731;29;20057;-79
2022/11/05 05:36:19;;;;;;;1.73;0.20;;;13.90;70.70;;;;;;4862079;29;20466;-81
2022/11/05 05:38:45;;;;;;;1.65;0.10;;;13.90;70.80;;;;;;4862248;29;20474;-80
2022/11/05 05:41:11;;;;;;;3.80;0.30;;;13.90;70.90;;;;;;4861640;29;20053;-80
2022/11/05 05:43:36;;;;;;;2.17;0.22;;;13.80;70.80;;;;;;4862004;29;20150;-81
2022/11/05 05:46:07;;;;;;;2.88;0.28;;;13.90;70.90;;;;;;4845945;29;20064;-80
2022/11/05 05:48:33;;;;;;;2.83;0.55;;;13.90;70.80;;;;;;4845787;29;20060;-80
2022/11/05 05:51:00;;;;;;;1.55;0.20;;;13.90;70.90;;;;;;4846002;29;20379;-79
2022/11/05 05:53:26;;;;;;;0.95;0.30;;;13.80;70.70;;;;;;4868617;29;20050;-80
2022/11/05 05:55:53;;;;;;;0.88;0.20;;;13.80;71.40;;;;;;4845522;29;20042;-80
2022/11/05 05:58:19;;;;;;;2.22;0.40;;;13.80;70.80;;;;;;4862034;29;20428;-79
2022/11/05 06:00:45;;;;;;;1.75;0.40;;;13.80;70.70;;;;;;4869048;29;20081;-80
2022/11/05 06:03:10;;;;;;;1.88;0.20;;;13.80;70.80;;;;;;4847699;29;20049;-79
2022/11/05 06:05:36;;;;;;;1.45;0.20;;;13.80;70.70;;;;;;4849051;29;20046;-80
2022/11/05 06:08:02;;;;;;;2.72;0.35;;;13.80;70.70;;;;;;4849223;29;20077;-81
2022/11/05 06:10:28;;;;;;;1.58;0.30;;;13.80;70.70;;;;;;4865704;29;20034;-80
2022/11/05 06:12:53;;;;;;;2.15;0.30;;;13.80;70.70;;;;;;4865326;29;20055;-79
2022/11/05 06:15:19;;;;;;;0.95;0.20;;;13.70;70.70;;;;;;4865415;29;20132;-78
2022/11/05 06:17:45;;;;;;;2.05;0.50;;;13.80;70.70;;;;;;4865490;29;20084;-81
2022/11/05 06:20:12;;;;;;;2.22;0.40;;;13.70;70.40;;;;;;4865322;29;20056;-79
2022/11/05 06:22:38;;;;;;;4.75;0.60;;;13.60;70.40;;;;;;4864914;29;20375;-75
2022/11/05 06:25:04;;;;;;;17.98;1.40;;;13.60;71.60;;;;;;4865171;29;20181;-74
2022/11/05 06:27:30;;;;;;;4.00;0.60;;;13.70;71.40;;;;;;4865577;29;20132;-76
2022/11/05 06:29:56;;;;;;;4.82;0.57;;;13.80;70.40;;;;;;4866208;29;20140;-78
2022/11/05 06:32:22;;;;;;;3.95;1.08;;;13.80;70.20;;;;;;4864686;29;20459;-77
2022/11/05 06:34:48;;;;;;;4.35;0.70;;;13.80;70.40;;;;;;4864808;29;20041;-75
2022/11/05 06:37:13;;;;;;;9.35;0.55;;;13.80;70.60;;;;;;4865464;29;20064;-79
2022/11/05 06:39:39;;;;;;;6.47;0.85;;;13.80;70.70;;;;;;4873439;29;20121;-77
2022/11/05 06:42:05;;;;;;;4.35;0.88;;;13.90;70.70;;;;;;4867628;29;20048;-75
2022/11/05 06:44:30;;;;;;;7.40;0.65;;;14.00;70.80;;;;;;4884154;29;20144;-76
2022/11/05 06:46:56;;;;;;;5.97;0.90;;;14.00;70.70;;;;;;4884068;29;20044;-74
2022/11/05 06:49:23;;;;;;;19.10;1.48;;;14.10;70.60;;;;;;4884108;29;20366;-78
2022/11/05 06:51:52;;;;;;;8.98;1.00;;;14.10;70.20;;;;;;4884158;29;20057;-77
2022/11/05 06:54:18;;;;;;;11.13;1.17;;;14.10;70.00;;;;;;4856267;29;20053;-79
2022/11/05 06:56:43;;;;;;;9.88;1.73;;;14.10;70.30;;;;;;4865146;29;20056;-81
2022/11/05 06:59:09;;;;;;;7.38;1.27;;;14.20;71.30;;;;;;4848696;29;20056;-80
2022/11/05 07:01:36;;;;;;;24.05;1.55;;;14.20;71.30;;;;;;4864542;29;20116;-79
2022/11/05 07:04:02;;;;;;;11.02;1.40;;;14.40;71.30;;;;;;4833749;29;20057;-75
2022/11/05 07:06:31;;;;;;;19.70;1.85;;;14.60;71.30;;;;;;4848707;29;20392;-77
2022/11/05 07:08:57;;;;;;;13.20;1.77;;;14.80;71.10;;;;;;4848173;29;20546;-80
2022/11/05 07:11:22;;;;;;;12.95;1.73;;;15.10;71.00;;;;;;4865314;29;20090;-80
2022/11/05 07:13:48;;;;;;;15.13;1.52;;;15.20;71.00;;;;;;4847371;29;20049;-79
2022/11/05 07:16:14;;;;;;;16.73;1.73;;;15.40;71.10;;;;;;4833207;29;20056;-79
2022/11/05 07:18:40;;;;;;;10.05;1.33;;;15.50;71.20;;;;;;4831503;29;20049;-80
2022/11/05 07:21:05;;;;;;;10.75;1.42;;;15.50;71.20;;;;;;4845080;29;20535;-80
2022/11/05 07:23:31;;;;;;;12.30;1.45;;;15.60;72.00;;;;;;4831903;29;20236;-79
2022/11/05 07:26:00;;;;;;;15.45;2.10;;;15.60;71.50;;;;;;4832746;29;20057;-79
2022/11/05 07:28:26;;;;;;;22.33;1.65;;;15.60;71.80;;;;;;4847638;29;20045;-79
2022/11/05 07:30:52;;;;;;;15.35;1.60;;;15.60;72.10;;;;;;4864348;29;20072;-79
2022/11/05 07:33:18;;;;;;;17.60;1.80;;;15.60;72.40;;;;;;4848150;29;20073;-80
2022/11/05 07:35:44;;;;;;;9.68;1.45;;;15.60;72.80;;;;;;4832944;29;20069;-79
2022/11/05 07:38:10;;;;;;;19.05;1.73;;;15.60;72.90;;;;;;4832731;29;20045;-79
2022/11/05 07:44:18;;;;;;;10.63;1.58;;;15.60;73.20;;;;;;4843390;29;20068;-80
2022/11/05 07:46:49;;;;;;;18.17;2.05;;;15.60;73.30;;;;;;4843850;29;20050;-76
2022/11/05 07:49:33;;;;;;;28.27;1.88;;;15.60;73.50;;;;;;4845227;29;20049;-76
2022/11/05 07:52:20;;;;;;;20.65;2.45;;;15.50;73.60;;;;;;4863992;29;20041;-78
2022/11/05 07:58:12;;;;;;;16.35;1.42;;;15.50;73.90;;;;;;4863869;29;20356;-80
2022/11/05 08:04:49;;;;;;;14.02;1.83;;;15.60;74.40;;;;;;4845282;29;20060;-78
2022/11/05 08:07:14;;;;;;;10.95;1.20;;;15.50;73.70;;;;;;4828900;29;20060;-74
2022/11/05 08:10:12;;;;;;;9.30;1.52;;;15.50;74.10;;;;;;4845081;29;20049;-79
2022/11/05 08:12:39;;;;;;;4.72;1.10;;;15.50;73.50;;;;;;4840620;29;20058;-76
2022/11/05 08:15:06;;;;;;;4.63;0.80;;;15.40;72.80;;;;;;4845580;29;20096;-70
2022/11/05 08:17:31;;;;;;;5.40;1.00;;;15.40;72.00;;;;;;4846653;29;20046;-78
2022/11/05 08:24:20;;;;;;;9.82;0.88;;;15.40;70.20;;;;;;4818593;29;20115;-80
2022/11/05 08:26:46;;;;;;;6.88;1.00;;;15.20;70.50;;;;;;4809392;29;20050;-79
2022/11/05 08:29:11;;;;;;;12.85;1.30;;;15.10;70.80;;;;;;4808134;29;20057;-78
2022/11/05 08:31:40;;;;;;;10.90;1.33;;;15.10;71.20;;;;;;4794570;29;20207;-78
2022/11/05 08:34:08;;;;;;;7.63;1.23;;;15.20;71.40;;;;;;4854895;29;20116;-79
2022/11/05 08:36:39;;;;;;;14.13;1.30;;;15.10;71.50;;;;;;4843686;29;20057;-79
2022/11/05 08:39:05;;;;;;;8.70;1.45;;;15.10;71.60;;;;;;4865307;29;20045;-79
2022/11/05 08:41:36;;;;;;;8.50;1.58;;;15.20;71.60;;;;;;4879859;29;20375;-79
2022/11/05 08:44:05;;;;;;;3.63;0.90;;;15.20;71.20;;;;;;4830547;29;20370;-80
2022/11/05 08:46:30;;;;;;;4.95;0.70;;;15.20;71.00;;;;;;4831232;29;20128;-79
2022/11/05 08:48:56;;;;;;;4.40;1.15;;;15.20;71.00;;;;;;4846314;29;20570;-80
2022/11/05 08:51:25;;;;;;;4.15;0.90;;;15.20;70.70;;;;;;4831788;29;20109;-79
2022/11/05 08:53:50;;;;;;;5.05;1.00;;;15.20;70.60;;;;;;4845502;29;20064;-81
2022/11/05 08:56:16;;;;;;;5.75;1.00;;;15.20;70.20;;;;;;4858323;29;20037;-80
2022/11/05 08:58:42;;;;;;;4.13;1.27;;;15.20;70.30;;;;;;4844031;29;20082;-79
2022/11/05 09:01:07;;;;;;;7.15;2.08;;;15.20;70.60;;;;;;4845847;29;20041;-81
2022/11/05 09:03:33;;;;;;;6.15;1.20;;;15.10;70.80;;;;;;4846172;29;20068;-80
2022/11/05 09:05:59;;;;;;;6.25;0.90;;;15.10;71.10;;;;;;4846688;29;20117;-79
2022/11/05 09:08:25;;;;;;;4.63;1.13;;;15.10;71.40;;;;;;4862372;29;20053;-81
2022/11/05 09:10:50;;;;;;;3.78;0.90;;;15.00;71.50;;;;;;4846579;29;20041;-79
2022/11/05 09:13:16;;;;;;;3.55;0.82;;;15.00;71.60;;;;;;4846443;29;20045;-78
2022/11/05 09:15:42;;;;;;;3.17;0.73;;;15.00;71.90;;;;;;4862789;29;20052;-79
2022/11/05 09:18:12;;;;;;;3.45;1.23;;;15.00;72.00;;;;;;4831093;29;20045;-81
2022/11/05 09:20:38;;;;;;;3.55;1.10;;;15.00;71.80;;;;;;4845728;29;20125;-79
2022/11/05 09:23:06;;;;;;;5.88;1.27;;;15.00;71.50;;;;;;4831751;29;20068;-79
2022/11/05 09:25:32;;;;;;;4.70;1.40;;;15.10;71.30;;;;;;4862350;29;20045;-80
2022/11/05 09:28:16;;;;;;;5.25;1.73;;;15.10;71.20;;;;;;4846153;29;20037;-79
2022/11/05 09:30:43;;;;;;;;;;;15.10;71.10;;;;;;4831109;29;20053;-80
2022/11/05 09:33:09;;;;;;;6.75;1.48;;;15.10;71.10;;;;;;4854889;29;19976;-80
2022/11/05 09:35:39;;;;;;;5.72;1.42;;;15.10;71.10;;;;;;4862247;29;20041;-81
2022/11/05 09:38:40;;;;;;;3.50;1.10;;;15.10;71.20;;;;;;4845524;29;20067;-82
2022/11/05 09:41:19;;;;;;;5.28;1.20;;;15.10;71.80;;;;;;4846058;29;20041;-81
2022/11/05 09:43:53;;;;;;;5.97;1.42;;;15.10;72.40;;;;;;4846006;29;20046;-78
2022/11/05 09:46:44;;;;;;;6.30;1.70;;;15.10;72.20;;;;;;4862070;29;20045;-77
2022/11/05 09:49:24;;;;;;;4.88;1.40;;;15.10;72.40;;;;;;4862301;29;20037;-79
2022/11/05 09:51:52;;;;;;;4.57;1.05;;;15.10;72.50;;;;;;4861958;29;20092;-73
2022/11/05 09:54:23;;;;;;;8.88;1.48;;;15.10;72.50;;;;;;4861566;29;20125;-76
2022/11/05 09:56:50;;;;;;;7.50;1.77;;;15.10;72.80;;;;;;4861729;29;20151;-79
2022/11/05 09:59:28;;;;;;;5.65;1.23;;;15.10;72.80;;;;;;4862200;29;20073;-77
2022/11/05 10:02:19;;;;;;;9.45;1.42;;;15.10;73.00;;;;;;4861825;29;20100;-77
2022/11/05 10:04:49;;;;;;;4.05;1.10;;;15.00;72.70;;;;;;4851495;29;20414;-78
2022/11/05 10:07:19;;;;;;;7.70;1.30;;;15.00;72.80;;;;;;4862008;29;20055;-78
2022/11/05 10:10:06;;;;;;;8.65;1.33;;;15.00;73.50;;;;;;4861987;29;20041;-78
2022/11/05 10:12:43;;;;;;;9.98;1.52;;;15.00;73.60;;;;;;4850495;29;20082;-76
2022/11/05 10:15:19;;;;;;;9.85;1.50;;;15.10;74.20;;;;;;4846251;29;20057;-79
2022/11/05 10:17:54;;;;;;;5.25;1.02;;;15.20;74.20;;;;;;4845919;29;20046;-77
2022/11/05 10:20:36;;;;;;;10.98;1.42;;;15.20;74.20;;;;;;4844171;29;20447;-79
2022/11/05 10:23:21;;;;;;;8.35;1.30;;;15.30;74.20;;;;;;4861986;29;20042;-77
2022/11/05 10:25:52;;;;;;;11.45;1.15;;;15.30;74.80;;;;;;4862110;29;20084;-77
2022/11/05 10:28:20;;;;;;;14.82;1.67;;;15.40;74.50;;;;;;4862228;29;20053;-78
2022/11/05 10:30:50;;;;;;;6.97;1.05;;;15.40;74.40;;;;;;4861785;29;20411;-78
2022/11/05 10:33:23;;;;;;;6.32;1.15;;;15.50;74.00;;;;;;4861586;29;20463;-77
2022/11/05 10:35:53;;;;;;;8.88;1.40;;;15.50;73.60;;;;;;4861517;29;20113;-80
2022/11/05 10:38:18;;;;;;;11.15;1.23;;;15.50;74.10;;;;;;4861741;29;20080;-77
2022/11/05 10:41:04;;;;;;;11.57;1.30;;;15.50;73.40;;;;;;4861573;29;20065;-79
2022/11/05 10:43:34;;;;;;;13.15;2.05;;;15.50;73.30;;;;;;4861209;29;20046;-80
2022/11/05 10:46:41;;;;;;;14.57;1.77;;;15.50;73.10;;;;;;4860603;29;20140;-78
2022/11/05 10:49:30;;;;;;;11.85;1.30;;;15.50;73.20;;;;;;4863863;29;20041;-79
2022/11/05 10:51:58;;;;;;;20.13;2.35;;;15.50;73.20;;;;;;4833271;29;20367;-76
2022/11/05 10:54:29;;;;;;;11.40;1.52;;;15.40;72.80;;;;;;4865282;29;20054;-74
2022/11/05 10:56:55;;;;;;;10.95;1.05;;;15.40;72.70;;;;;;4864998;29;20106;-80
2022/11/05 10:59:31;;;;;;;15.82;3.05;;;15.30;73.40;;;;;;4848638;29;20061;-78
2022/11/05 11:02:13;;;;;;;10.70;1.60;;;15.30;73.10;;;;;;4848375;29;20049;-77
2022/11/05 11:04:39;;;;;;;14.23;1.63;;;15.30;73.50;;;;;;4848982;29;20041;-79
2022/11/05 11:07:20;;;;;;;12.27;2.17;;;15.30;73.30;;;;;;4865065;29;20074;-77
2022/11/05 11:09:48;;;;;;;12.48;1.60;;;15.30;73.20;;;;;;4832970;29;20101;-79
2022/11/05 11:12:26;;;;;;;8.45;1.13;;;15.20;72.90;;;;;;4865057;29;20057;-77
2022/11/05 11:15:15;;;;;;;7.85;1.40;;;15.30;72.60;;;;;;4864489;29;20084;-77
2022/11/05 11:17:41;;;;;;;7.57;1.55;;;15.30;72.70;;;;;;4864749;29;20052;-79
2022/11/05 11:20:27;;;;;;;5.18;1.40;;;15.30;72.80;;;;;;4864470;29;20050;-78
2022/11/05 11:23:08;;;;;;;8.57;1.15;;;15.30;72.20;;;;;;4832553;29;20052;-79
2022/11/05 11:25:59;;;;;;;8.68;2.17;;;15.30;71.60;;;;;;4864004;29;20045;-79
2022/11/05 11:28:38;;;;;;;12.52;1.70;;;15.30;72.80;;;;;;4835670;29;20049;-75
2022/11/05 11:31:16;;;;;;;8.35;1.63;;;15.30;73.00;;;;;;4864388;29;20065;-77
2022/11/05 11:33:45;;;;;;;7.32;1.17;;;15.30;72.90;;;;;;4864530;29;20077;-76
2022/11/05 11:36:12;;;;;;;7.88;1.58;;;15.30;72.90;;;;;;4847935;29;20128;-75
2022/11/05 11:38:39;;;;;;;10.25;0.93;;;15.30;72.70;;;;;;4864065;29;20082;-78
2022/11/05 11:41:22;;;;;;;8.23;1.13;;;15.30;72.80;;;;;;4848309;29;20053;-77
2022/11/05 11:43:52;;;;;;;6.60;1.25;;;15.20;72.80;;;;;;4864519;29;20041;-77
2022/11/05 11:46:19;;;;;;;10.48;1.80;;;15.20;73.10;;;;;;4864074;29;20060;-77
2022/11/05 11:48:47;;;;;;;16.40;1.90;;;15.20;73.30;;;;;;4864813;29;20420;-75
2022/11/05 11:51:21;;;;;;;11.25;1.75;;;15.20;73.40;;;;;;4847785;29;20117;-80
2022/11/05 11:53:48;;;;;;;8.18;1.45;;;15.20;73.20;;;;;;4864093;29;20466;-77
2022/11/05 11:56:19;;;;;;;9.40;1.15;;;15.20;73.00;;;;;;4864239;29;20052;-77
2022/11/05 11:58:53;;;;;;;4.80;1.10;;;15.20;72.60;;;;;;4832594;29;20382;-76
2022/11/05 12:01:37;;;;;;;9.75;1.00;;;15.20;72.30;;;;;;4862210;29;20530;-76
2022/11/05 12:04:29;;;;;;;6.80;0.90;;;15.20;72.60;;;;;;4848348;29;20049;-77
2022/11/05 12:07:13;;;;;;;7.03;1.33;;;15.20;72.70;;;;;;4864189;29;20053;-75
2022/11/05 12:09:57;;;;;;;;;;;15.20;73.10;;;;;;4864317;29;20053;-80
2022/11/05 12:12:33;;;;;;;5.30;0.90;;;15.20;73.30;;;;;;4863452;29;20349;-75
2022/11/05 12:15:26;;;;;;;6.07;1.52;;;15.20;73.10;;;;;;4847545;29;20116;-77
2022/11/05 12:18:03;;;;;;;13.98;1.33;;;15.20;73.20;;;;;;4863660;29;20045;-78
2022/11/05 12:20:31;;;;;;;7.22;0.85;;;15.20;73.20;;;;;;4863022;29;20056;-77
2022/11/05 12:23:10;;;;;;;4.43;0.80;;;15.20;73.00;;;;;;4863845;29;20041;-78
2022/11/05 12:25:54;;;;;;;6.47;0.93;;;15.30;72.70;;;;;;4832290;29;20419;-78
2022/11/05 12:28:40;;;;;;;8.18;0.80;;;15.30;72.30;;;;;;4847154;29;20103;-81
2022/11/05 12:31:28;;;;;;;11.02;0.70;;;15.30;72.80;;;;;;4846619;29;20060;-78
2022/11/05 12:34:18;;;;;;;6.15;1.10;;;15.30;72.60;;;;;;4847319;29;20125;-77
2022/11/05 12:37:10;;;;;;;6.22;0.90;;;15.30;72.70;;;;;;4863276;29;20053;-76
2022/11/05 12:39:54;;;;;;;6.97;0.98;;;15.40;72.80;;;;;;4831935;29;20527;-77
2022/11/05 12:42:38;;;;;;;4.07;0.77;;;15.60;72.60;;;;;;4831680;29;20463;-78
2022/11/05 12:45:24;;;;;;;8.90;1.98;;;15.70;72.50;;;;;;4847205;29;20068;-75
2022/11/05 12:48:22;;;;;;;7.28;1.42;;;15.80;72.00;;;;;;5133372;27;20362;-80
2022/11/05 12:50:58;;;;;;;6.47;1.70;;;15.80;71.80;;;;;;5092858;28;20071;-78
2022/11/05 12:53:32;;;;;;;6.25;1.52;;;15.80;71.60;;;;;;5074838;28;20051;-80
2022/11/05 12:57:05;;;;;;;5.55;1.67;;;15.90;71.70;;;;;;5189239;22;20031;-79
2022/11/05 12:59:57;;;;;;;4.15;1.30;;;15.90;71.70;;;;;;5031925;28;20459;-78
2022/11/05 13:02:44;;;;;;;5.72;1.55;;;15.90;70.80;;;;;;5015117;28;20045;-78
2022/11/05 13:05:28;;;;;;;6.13;1.50;;;15.80;70.40;;;;;;5032191;28;20049;-80
2022/11/05 13:08:21;;;;;;;6.40;1.75;;;15.80;70.20;;;;;;5014695;28;20054;-75
2022/11/05 13:10:56;;;;;;;6.10;1.95;;;15.60;70.80;;;;;;5032151;28;20503;-76
2022/11/05 13:13:30;;;;;;;4.68;1.30;;;15.50;71.30;;;;;;5032002;28;20033;-77
2022/11/05 13:16:05;;;;;;;5.78;1.88;;;15.40;71.80;;;;;;5032152;28;20052;-75
2022/11/05 13:18:40;;;;;;;6.53;1.92;;;15.40;72.10;;;;;;5014907;28;20462;-77
2022/11/05 13:21:08;;;;;;;5.80;1.40;;;15.30;72.10;;;;;;5032074;28;20065;-75
2022/11/05 13:23:42;;;;;;;9.63;2.00;;;15.40;72.30;;;;;;5032600;28;20460;-75
2022/11/05 13:26:21;;;;;;;7.63;1.55;;;15.30;72.20;;;;;;5031840;28;20108;-76
2022/11/05 13:29:00;;;;;;;8.85;1.40;;;15.30;72.50;;;;;;5032463;28;20232;-75
2022/11/05 13:31:35;;;;;;;4.38;1.48;;;15.30;72.70;;;;;;5014631;28;20470;-74
2022/11/05 13:34:08;;;;;;;5.45;1.33;;;15.20;72.70;;;;;;5031477;28;20057;-76
2022/11/05 13:40:05;;;;;;;9.43;1.73;;;15.20;72.40;;;;;;5031631;28;20464;-73
2022/11/05 13:42:33;;;;;;;5.63;1.30;;;15.20;72.50;;;;;;5031299;28;20108;-77
2022/11/05 13:45:11;;;;;;;8.70;1.20;;;15.20;72.80;;;;;;5014280;28;20054;-74
2022/11/05 13:48:07;;;;;;;6.10;1.65;;;15.20;73.00;;;;;;5013844;28;20341;-72
2022/11/05 13:51:10;;;;;;;9.00;1.60;;;15.20;73.10;;;;;;5031193;28;20053;-75
2022/11/05 13:53:54;;;;;;;5.20;1.65;;;15.20;73.20;;;;;;5031534;28;20048;-76
2022/11/05 15:11:55;;;;;;;14.18;4.43;;;16.20;78.10;;;;;;5481819;24;20465;-78
2022/11/05 15:14:39;;;;;;;10.55;3.67;;;16.20;77.60;;;;;;4809937;29;20363;-76
2022/11/05 15:17:32;;;;;;;12.63;3.35;;;16.20;77.50;;;;;;4826634;29;20145;-76
2022/11/05 15:20:12;;;;;;;14.00;6.07;;;16.20;77.90;;;;;;4827657;29;20058;-74
2022/11/05 15:22:48;;;;;;;12.52;3.95;;;16.30;80.70;;;;;;4826937;29;20069;-76
2022/11/05 15:25:31;;;;;;;9.60;3.10;;;16.30;80.60;;;;;;4841487;29;20042;-76
2022/11/05 15:27:57;;;;;;;6.32;2.65;;;16.30;80.50;;;;;;4826141;29;20116;-78
2022/11/05 15:30:23;;;;;;;9.38;2.00;;;16.30;79.10;;;;;;4827234;29;20042;-79
2022/11/05 15:32:49;;;;;;;9.43;2.08;;;16.30;75.00;;;;;;4810958;29;20455;-78
2022/11/05 15:35:18;;;;;;;9.43;1.95;;;16.20;73.60;;;;;;4811036;29;20446;-77
2022/11/05 15:37:49;;;;;;;10.23;2.03;;;16.10;73.60;;;;;;4810859;29;20360;-75
2022/11/05 15:40:27;;;;;;;9.32;2.28;;;15.90;73.90;;;;;;4826550;29;20045;-77
2022/11/05 15:43:20;;;;;;;5.55;1.67;;;15.80;74.10;;;;;;4810272;29;20046;-76
2022/11/05 15:46:13;;;;;;;8.85;2.22;;;15.70;74.30;;;;;;4840664;29;20485;-77
2022/11/05 15:48:39;;;;;;;5.50;1.70;;;15.60;74.60;;;;;;4826604;29;20098;-77
2022/11/05 15:51:05;;;;;;;7.13;1.27;;;15.50;75.10;;;;;;4826768;29;20050;-79
2022/11/05 15:53:43;;;;;;;9.18;1.55;;;15.50;75.10;;;;;;4825883;29;20128;-76
2022/11/05 15:56:14;;;;;;;5.78;1.55;;;15.50;75.40;;;;;;4826737;29;20058;-76
2022/11/05 15:58:53;;;;;;;6.60;1.67;;;15.40;75.50;;;;;;4826607;29;20454;-76
2022/11/05 16:01:22;;;;;;;10.13;2.00;;;15.50;75.00;;;;;;4826238;29;20469;-75
2022/11/05 16:03:48;;;;;;;4.38;1.73;;;15.50;74.50;;;;;;4826968;29;20097;-75
2022/11/05 16:06:14;;;;;;;5.57;1.45;;;15.50;74.10;;;;;;4826504;29;20058;-74
2022/11/05 16:08:46;;;;;;;6.20;1.27;;;15.60;74.30;;;;;;4824751;29;20050;-75
2022/11/05 16:11:20;;;;;;;9.07;2.45;;;15.50;74.40;;;;;;4826820;29;20043;-76
2022/11/05 16:13:46;;;;;;;9.02;1.63;;;15.60;74.70;;;;;;4822227;29;20062;-76
2022/11/05 16:16:12;;;;;;;14.63;3.00;;;15.50;74.70;;;;;;4809778;29;20505;-78
2022/11/05 16:18:38;;;;;;;9.70;1.40;;;15.60;74.50;;;;;;4826712;29;20054;-78
2022/11/05 16:21:17;;;;;;;9.48;1.98;;;15.50;74.30;;;;;;4825644;29;20043;-76
2022/11/05 16:23:53;;;;;;;17.35;3.00;;;15.50;74.30;;;;;;4826550;29;20058;-76
2022/11/05 16:26:35;;;;;;;14.80;2.42;;;15.50;74.50;;;;;;4825623;29;20065;-74
2022/11/05 16:29:31;;;;;;;19.35;2.40;;;15.50;74.20;;;;;;4808050;29;20051;-74
2022/11/05 16:32:00;;;;;;;12.55;1.98;;;15.50;74.20;;;;;;4800717;29;20059;-76
2022/11/05 16:34:41;;;;;;;12.75;2.65;;;15.50;74.40;;;;;;4806354;29;20118;-75
2022/11/05 16:37:14;;;;;;;14.55;2.58;;;15.50;74.30;;;;;;4808016;29;20054;-74
2022/11/05 16:39:40;;;;;;;19.98;1.95;;;15.50;74.60;;;;;;4807708;29;20054;-75
2022/11/05 16:42:33;;;;;;;14.75;2.15;;;15.40;74.70;;;;;;4791944;29;20051;-74
2022/11/05 18:36:49;;;;;;;7.40;1.63;;;15.60;74.60;;;;;;5331374;23;20054;-71
2022/11/05 18:39:15;;;;;;;6.53;2.05;;;15.50;75.10;;;;;;4845810;29;20492;-74
2022/11/05 18:41:41;;;;;;;10.52;2.08;;;15.50;75.40;;;;;;4845964;29;20049;-73
2022/11/05 18:44:07;;;;;;;5.93;1.92;;;15.50;76.40;;;;;;4846231;29;20475;-71
2022/11/05 18:46:33;;;;;;;7.20;1.90;;;15.50;76.00;;;;;;4845759;29;20104;-74
2022/11/05 18:48:59;;;;;;;6.65;2.47;;;15.50;76.40;;;;;;4845862;29;20373;-76
2022/11/05 18:51:25;;;;;;;6.68;1.95;;;15.40;76.70;;;;;;4846191;29;20053;-74
2022/11/05 18:53:53;;;;;;;6.35;2.05;;;15.40;76.90;;;;;;4846011;29;20450;-74
2022/11/05 18:56:18;;;;;;;8.02;2.00;;;15.40;77.30;;;;;;4846303;29;20398;-74
2022/11/05 18:58:44;;;;;;;3.20;1.45;;;15.40;77.50;;;;;;4846056;29;20129;-78
2022/11/05 19:01:14;;;;;;;6.05;1.88;;;15.40;77.90;;;;;;4845820;29;20054;-74
2022/11/05 19:03:40;;;;;;;10.07;1.88;;;15.40;78.10;;;;;;4845693;29;20052;-74
2022/11/05 19:06:06;;;;;;;19.83;2.33;;;15.40;78.20;;;;;;4845708;29;20376;-74
2022/11/05 19:08:32;;;;;;;7.40;2.08;;;15.40;78.40;;;;;;4845106;29;20045;-75
2022/11/05 19:10:59;;;;;;;5.22;1.40;;;15.40;78.40;;;;;;4845353;29;20045;-74
2022/11/05 19:13:25;;;;;;;5.38;1.20;;;15.50;78.30;;;;;;4845530;29;20046;-76
2022/11/05 19:15:51;;;;;;;5.93;1.60;;;15.50;78.10;;;;;;4845917;29;20401;-75
2022/11/05 19:18:17;;;;;;;4.43;1.70;;;15.40;78.10;;;;;;4846112;29;20133;-75
2022/11/05 19:20:43;;;;;;;7.68;1.58;;;15.40;78.10;;;;;;4845928;29;20128;-75
2022/11/05 19:23:08;;;;;;;8.30;1.77;;;15.50;78.20;;;;;;4829649;29;20058;-75
2022/11/05 19:25:36;;;;;;;4.97;1.20;;;15.40;78.20;;;;;;4829655;29;20058;-75
2022/11/05 19:28:02;;;;;;;4.57;1.38;;;15.40;78.20;;;;;;4845540;29;20113;-77
2022/11/05 19:30:28;;;;;;;4.30;1.70;;;15.40;78.20;;;;;;4844403;29;20058;-74
2022/11/05 19:32:54;;;;;;;4.20;1.30;;;15.40;78.20;;;;;;4845264;29;20426;-75
2022/11/05 19:35:20;;;;;;;4.50;1.48;;;15.40;78.20;;;;;;4845537;29;20053;-76
2022/11/05 19:37:46;;;;;;;2.88;1.30;;;15.40;78.20;;;;;;4844842;29;20085;-75
2022/11/05 19:40:11;;;;;;;4.70;1.40;;;15.40;78.20;;;;;;4845892;29;20105;-76
2022/11/05 19:42:37;;;;;;;6.20;1.60;;;15.40;78.30;;;;;;4845084;29;20050;-75
2022/11/05 19:45:03;;;;;;;3.88;1.70;;;15.40;78.90;;;;;;4845018;29;20123;-75
2022/11/05 19:47:29;;;;;;;3.67;1.40;;;15.40;78.30;;;;;;4844986;29;20068;-77
2022/11/05 19:49:55;;;;;;;2.35;1.52;;;15.40;78.30;;;;;;4844958;29;20453;-76
2022/11/05 19:52:20;;;;;;;5.50;1.80;;;15.40;78.30;;;;;;4845676;29;20361;-75
2022/11/05 19:54:46;;;;;;;2.03;1.02;;;15.40;78.30;;;;;;4844870;29;20058;-75
2022/11/05 19:57:12;;;;;;;4.93;1.50;;;15.40;78.90;;;;;;4844575;29;20041;-76
2022/11/05 19:59:37;;;;;;;3.50;1.83;;;15.40;78.30;;;;;;4844520;29;20057;-76
2022/11/05 20:02:05;;;;;;;2.80;1.35;;;15.40;78.30;;;;;;4845174;29;20058;-75
2022/11/05 20:04:31;;;;;;;4.68;1.27;;;15.40;78.30;;;;;;4843898;29;20057;-75
2022/11/05 20:06:57;;;;;;;3.97;1.15;;;15.40;78.30;;;;;;4844679;29;20331;-76
2022/11/05 20:09:23;;;;;;;3.42;1.40;;;15.40;78.30;;;;;;4844665;29;20049;-74
2022/11/05 20:11:52;;;;;;;4.13;1.52;;;15.40;78.30;;;;;;4844235;29;20461;-73
2022/11/05 20:14:18;;;;;;;5.25;1.83;;;15.40;79.00;;;;;;4843835;29;20057;-76
2022/11/05 20:16:45;;;;;;;5.15;1.80;;;15.40;78.30;;;;;;4844877;29;20064;-75
2022/11/05 20:19:14;;;;;;;4.28;1.85;;;15.40;77.90;;;;;;4844520;29;20095;-75
2022/11/05 20:21:40;;;;;;;3.15;1.90;;;15.50;77.40;;;;;;4844819;29;20361;-76
2022/11/05 20:24:07;;;;;;;5.03;1.85;;;15.50;77.10;;;;;;4844887;29;20057;-75
2022/11/05 20:26:33;;;;;;;3.75;1.60;;;15.50;76.70;;;;;;4844403;29;20057;-76
2022/11/05 20:28:59;;;;;;;4.78;1.85;;;15.50;76.40;;;;;;4844539;29;20057;-76
2022/11/05 20:31:24;;;;;;;6.82;3.05;;;15.50;76.10;;;;;;4844605;29;20054;-75
2022/11/05 20:33:50;;;;;;;5.00;2.53;;;15.50;75.90;;;;;;4844400;29;20137;-75
2022/11/05 20:36:19;;;;;;;5.75;2.72;;;15.50;75.60;;;;;;4844756;29;20486;-76
2022/11/05 20:38:56;;;;;;;6.70;2.88;;;15.50;75.40;;;;;;4844413;29;20065;-75
2022/11/05 20:41:24;;;;;;;9.35;2.88;;;15.50;75.20;;;;;;4840351;29;20065;-75
2022/11/05 20:43:50;;;;;;;10.75;3.00;;;15.50;75.20;;;;;;4843254;29;20488;-75
2022/11/05 20:46:18;;;;;;;8.38;2.60;;;15.50;75.30;;;;;;4842604;29;20491;-76
2022/11/05 20:48:44;;;;;;;7.07;2.85;;;15.50;75.10;;;;;;4843744;29;20061;-77
2022/11/05 20:51:21;;;;;;;10.88;2.78;;;15.50;75.10;;;;;;4843796;29;20117;-75
2022/11/05 20:53:47;;;;;;;9.25;3.08;;;15.50;75.00;;;;;;4843674;29;20122;-75
2022/11/05 20:56:22;;;;;;;9.55;3.60;;;15.50;74.90;;;;;;4837131;29;20132;-75
2022/11/05 20:58:48;;;;;;;9.63;2.95;;;15.50;74.70;;;;;;4843608;29;20393;-75
2022/11/05 21:01:15;;;;;;;8.05;3.15;;;15.50;74.60;;;;;;4843018;29;20138;-76
2022/11/05 21:03:43;;;;;;;11.65;3.35;;;15.50;74.60;;;;;;4844166;29;20046;-76